sensor_id;sensor_type;location;lat;lon;timestamp;temperature;humidity
71039;SHT30;58692;43.212;27.908;2023-07-08T00:01:09;25.63;69.41
71039;SHT30;58692;43.212;27.908;2023-07-08T00:03:35;25.56;69.72
71039;SHT30;58692;43.212;27.908;2023-07-08T00:06:01;25.53;69.88
71039;SHT30;58692;43.212;27.908;2023-07-08T00:08:27;25.50;69.96
71039;SHT30;58692;43.212;27.908;2023-07-08T00:10:52;25.08;71.33
71039;SHT30;58692;43.212;27.908;2023-07-08T00:13:18;25.04;71.38
71039;SHT30;58692;43.212;27.908;2023-07-08T00:15:44;24.88;71.75
71039;SHT30;58692;43.212;27.908;2023-07-08T00:18:13;24.85;72.13
71039;SHT30;58692;43.212;27.908;2023-07-08T00:20:44;24.89;72.07
71039;SHT30;58692;43.212;27.908;2023-07-08T00:23:10;24.84;71.96
71039;SHT30;58692;43.212;27.908;2023-07-08T00:25:36;24.91;71.98
71039;SHT30;58692;43.212;27.908;2023-07-08T00:28:01;24.75;72.43
71039;SHT30;58692;43.212;27.908;2023-07-08T00:30:30;24.89;72.25
71039;SHT30;58692;43.212;27.908;2023-07-08T00:32:56;25.05;71.73
71039;SHT30;58692;43.212;27.908;2023-07-08T00:35:24;24.94;71.99
71039;SHT30;58692;43.212;27.908;2023-07-08T00:37:51;24.86;72.12
71039;SHT30;58692;43.212;27.908;2023-07-08T00:40:21;24.69;72.48
71039;SHT30;58692;43.212;27.908;2023-07-08T00:42:47;24.75;72.45
71039;SHT30;58692;43.212;27.908;2023-07-08T00:45:27;24.65;72.84
71039;SHT30;58692;43.212;27.908;2023-07-08T00:47:57;24.58;72.97
71039;SHT30;58692;43.212;27.908;2023-07-08T00:50:25;24.51;73.38
71039;SHT30;58692;43.212;27.908;2023-07-08T00:55:56;24.67;72.82
71039;SHT30;58692;43.212;27.908;2023-07-08T00:58:24;24.64;72.94
71039;SHT30;58692;43.212;27.908;2023-07-08T01:00:51;24.72;72.72
71039;SHT30;58692;43.212;27.908;2023-07-08T01:03:19;24.64;72.79
71039;SHT30;58692;43.212;27.908;2023-07-08T01:05:46;24.71;72.61
71039;SHT30;58692;43.212;27.908;2023-07-08T01:08:12;24.72;72.54
71039;SHT30;58692;43.212;27.908;2023-07-08T01:10:44;24.76;72.36
71039;SHT30;58692;43.212;27.908;2023-07-08T01:13:12;24.67;72.77
71039;SHT30;58692;43.212;27.908;2023-07-08T01:15:42;24.58;72.78
71039;SHT30;58692;43.212;27.908;2023-07-08T01:18:09;24.57;72.69
71039;SHT30;58692;43.212;27.908;2023-07-08T01:20:37;24.53;72.90
71039;SHT30;58692;43.212;27.908;2023-07-08T01:23:02;24.34;73.44
71039;SHT30;58692;43.212;27.908;2023-07-08T01:25:30;24.27;73.51
71039;SHT30;58692;43.212;27.908;2023-07-08T01:27:56;24.10;73.77
71039;SHT30;58692;43.212;27.908;2023-07-08T01:30:23;23.97;74.12
71039;SHT30;58692;43.212;27.908;2023-07-08T01:32:53;24.06;73.76
71039;SHT30;58692;43.212;27.908;2023-07-08T01:35:21;24.14;73.54
71039;SHT30;58692;43.212;27.908;2023-07-08T01:38:03;24.18;73.19
71039;SHT30;58692;43.212;27.908;2023-07-08T01:40:33;24.14;73.33
71039;SHT30;58692;43.212;27.908;2023-07-08T01:42:59;23.96;73.80
71039;SHT30;58692;43.212;27.908;2023-07-08T01:45:28;24.00;73.83
71039;SHT30;58692;43.212;27.908;2023-07-08T01:48:01;24.03;73.61
71039;SHT30;58692;43.212;27.908;2023-07-08T01:50:28;24.14;73.44
71039;SHT30;58692;43.212;27.908;2023-07-08T01:52:56;24.02;73.62
71039;SHT30;58692;43.212;27.908;2023-07-08T01:55:24;23.96;73.71
71039;SHT30;58692;43.212;27.908;2023-07-08T01:57:52;24.00;73.85
71039;SHT30;58692;43.212;27.908;2023-07-08T02:00:18;23.87;73.70
71039;SHT30;58692;43.212;27.908;2023-07-08T02:02:44;23.79;73.93
71039;SHT30;58692;43.212;27.908;2023-07-08T02:05:09;23.80;73.78
71039;SHT30;58692;43.212;27.908;2023-07-08T02:07:35;23.77;73.90
71039;SHT30;58692;43.212;27.908;2023-07-08T02:10:00;23.65;74.15
71039;SHT30;58692;43.212;27.908;2023-07-08T02:12:26;23.60;74.16
71039;SHT30;58692;43.212;27.908;2023-07-08T02:14:51;23.55;74.19
71039;SHT30;58692;43.212;27.908;2023-07-08T02:17:17;23.53;74.01
71039;SHT30;58692;43.212;27.908;2023-07-08T02:19:43;23.60;73.80
71039;SHT30;58692;43.212;27.908;2023-07-08T02:22:09;23.53;73.92
71039;SHT30;58692;43.212;27.908;2023-07-08T02:24:35;23.41;73.97
71039;SHT30;58692;43.212;27.908;2023-07-08T02:27:00;23.25;74.56
71039;SHT30;58692;43.212;27.908;2023-07-08T02:29:26;23.45;73.96
71039;SHT30;58692;43.212;27.908;2023-07-08T02:31:52;23.37;74.18
71039;SHT30;58692;43.212;27.908;2023-07-08T02:34:17;23.46;73.63
71039;SHT30;58692;43.212;27.908;2023-07-08T02:36:43;23.39;73.71
71039;SHT30;58692;43.212;27.908;2023-07-08T02:39:10;23.33;73.84
71039;SHT30;58692;43.212;27.908;2023-07-08T02:41:35;23.23;74.00
71039;SHT30;58692;43.212;27.908;2023-07-08T02:44:01;23.32;73.85
71039;SHT30;58692;43.212;27.908;2023-07-08T02:46:26;23.38;73.60
71039;SHT30;58692;43.212;27.908;2023-07-08T02:48:52;23.39;73.46
71039;SHT30;58692;43.212;27.908;2023-07-08T02:51:17;23.14;74.03
71039;SHT30;58692;43.212;27.908;2023-07-08T02:53:43;23.25;73.76
71039;SHT30;58692;43.212;27.908;2023-07-08T02:56:08;22.94;74.69
71039;SHT30;58692;43.212;27.908;2023-07-08T02:58:34;23.12;74.16
71039;SHT30;58692;43.212;27.908;2023-07-08T03:01:00;22.95;74.65
71039;SHT30;58692;43.212;27.908;2023-07-08T03:03:27;22.99;74.74
71039;SHT30;58692;43.212;27.908;2023-07-08T03:05:56;23.05;74.66
71039;SHT30;58692;43.212;27.908;2023-07-08T03:08:21;22.83;75.42
71039;SHT30;58692;43.212;27.908;2023-07-08T03:10:48;23.19;74.15
71039;SHT30;58692;43.212;27.908;2023-07-08T03:13:14;23.19;74.21
71039;SHT30;58692;43.212;27.908;2023-07-08T03:15:39;23.19;74.13
71039;SHT30;58692;43.212;27.908;2023-07-08T03:18:05;23.26;74.06
71039;SHT30;58692;43.212;27.908;2023-07-08T03:20:33;23.09;74.58
71039;SHT30;58692;43.212;27.908;2023-07-08T03:22:58;23.04;74.71
71039;SHT30;58692;43.212;27.908;2023-07-08T03:25:24;23.31;74.03
71039;SHT30;58692;43.212;27.908;2023-07-08T03:27:50;23.43;73.87
71039;SHT30;58692;43.212;27.908;2023-07-08T03:30:15;23.56;73.05
71039;SHT30;58692;43.212;27.908;2023-07-08T03:32:41;23.37;73.28
71039;SHT30;58692;43.212;27.908;2023-07-08T03:35:07;23.22;73.78
71039;SHT30;58692;43.212;27.908;2023-07-08T03:37:33;23.16;73.79
71039;SHT30;58692;43.212;27.908;2023-07-08T03:39:59;23.12;74.04
71039;SHT30;58692;43.212;27.908;2023-07-08T03:42:24;23.22;73.79
71039;SHT30;58692;43.212;27.908;2023-07-08T03:44:50;23.42;73.09
71039;SHT30;58692;43.212;27.908;2023-07-08T03:47:15;23.58;72.90
71039;SHT30;58692;43.212;27.908;2023-07-08T03:49:40;23.66;72.52
71039;SHT30;58692;43.212;27.908;2023-07-08T03:52:11;23.66;72.78
71039;SHT30;58692;43.212;27.908;2023-07-08T03:54:40;23.39;73.58
71039;SHT30;58692;43.212;27.908;2023-07-08T03:57:06;23.55;72.77
71039;SHT30;58692;43.212;27.908;2023-07-08T03:59:32;23.69;72.46
71039;SHT30;58692;43.212;27.908;2023-07-08T04:01:57;23.67;72.79
71039;SHT30;58692;43.212;27.908;2023-07-08T04:04:23;23.66;72.61
71039;SHT30;58692;43.212;27.908;2023-07-08T04:06:49;23.55;72.90
71039;SHT30;58692;43.212;27.908;2023-07-08T04:09:16;23.52;73.13
71039;SHT30;58692;43.212;27.908;2023-07-08T04:11:42;23.52;73.37
71039;SHT30;58692;43.212;27.908;2023-07-08T04:14:09;23.58;73.10
71039;SHT30;58692;43.212;27.908;2023-07-08T04:16:46;23.69;73.05
71039;SHT30;58692;43.212;27.908;2023-07-08T04:19:14;23.73;72.64
71039;SHT30;58692;43.212;27.908;2023-07-08T04:21:41;23.84;72.48
71039;SHT30;58692;43.212;27.908;2023-07-08T04:24:09;23.63;72.89
71039;SHT30;58692;43.212;27.908;2023-07-08T04:26:35;23.45;73.55
71039;SHT30;58692;43.212;27.908;2023-07-08T04:29:01;23.35;73.87
71039;SHT30;58692;43.212;27.908;2023-07-08T04:31:27;23.32;73.98
71039;SHT30;58692;43.212;27.908;2023-07-08T04:33:52;23.42;73.53
71039;SHT30;58692;43.212;27.908;2023-07-08T04:36:18;23.46;73.61
71039;SHT30;58692;43.212;27.908;2023-07-08T04:38:47;23.55;73.31
71039;SHT30;58692;43.212;27.908;2023-07-08T04:41:12;23.52;73.24
71039;SHT30;58692;43.212;27.908;2023-07-08T04:43:38;23.42;73.68
71039;SHT30;58692;43.212;27.908;2023-07-08T04:46:14;23.31;74.39
71039;SHT30;58692;43.212;27.908;2023-07-08T04:48:42;23.19;74.15
71039;SHT30;58692;43.212;27.908;2023-07-08T04:51:07;23.32;73.52
71039;SHT30;58692;43.212;27.908;2023-07-08T04:53:33;23.45;73.13
71039;SHT30;58692;43.212;27.908;2023-07-08T04:55:59;23.63;72.49
71039;SHT30;58692;43.212;27.908;2023-07-08T04:58:24;23.43;72.82
71039;SHT30;58692;43.212;27.908;2023-07-08T05:00:50;23.59;72.39
71039;SHT30;58692;43.212;27.908;2023-07-08T05:03:16;23.69;72.23
71039;SHT30;58692;43.212;27.908;2023-07-08T05:05:41;23.56;72.30
71039;SHT30;58692;43.212;27.908;2023-07-08T05:08:08;23.62;72.17
71039;SHT30;58692;43.212;27.908;2023-07-08T05:10:33;23.76;71.58
71039;SHT30;58692;43.212;27.908;2023-07-08T05:12:59;23.65;71.57
71039;SHT30;58692;43.212;27.908;2023-07-08T05:15:25;23.66;71.54
71039;SHT30;58692;43.212;27.908;2023-07-08T05:17:51;23.66;71.51
71039;SHT30;58692;43.212;27.908;2023-07-08T05:20:17;23.77;71.18
71039;SHT30;58692;43.212;27.908;2023-07-08T05:22:45;23.50;71.40
71039;SHT30;58692;43.212;27.908;2023-07-08T05:25:12;23.46;71.66
71039;SHT30;58692;43.212;27.908;2023-07-08T05:27:37;23.53;71.45
71039;SHT30;58692;43.212;27.908;2023-07-08T05:30:04;23.69;71.05
71039;SHT30;58692;43.212;27.908;2023-07-08T05:32:31;23.82;70.46
71039;SHT30;58692;43.212;27.908;2023-07-08T05:34:57;23.80;70.22
71039;SHT30;58692;43.212;27.908;2023-07-08T05:37:23;23.86;70.00
71039;SHT30;58692;43.212;27.908;2023-07-08T05:39:51;23.84;70.02
71039;SHT30;58692;43.212;27.908;2023-07-08T05:42:18;23.76;70.14
71039;SHT30;58692;43.212;27.908;2023-07-08T05:44:43;23.74;70.21
71039;SHT30;58692;43.212;27.908;2023-07-08T05:47:09;23.76;70.30
71039;SHT30;58692;43.212;27.908;2023-07-08T05:49:34;23.82;69.98
71039;SHT30;58692;43.212;27.908;2023-07-08T05:51:59;24.06;69.42
71039;SHT30;58692;43.212;27.908;2023-07-08T05:54:30;24.21;69.11
71039;SHT30;58692;43.212;27.908;2023-07-08T05:56:56;24.20;68.73
71039;SHT30;58692;43.212;27.908;2023-07-08T05:59:21;24.28;68.40
71039;SHT30;58692;43.212;27.908;2023-07-08T06:01:47;24.31;68.22
71039;SHT30;58692;43.212;27.908;2023-07-08T06:04:12;24.31;68.10
71039;SHT30;58692;43.212;27.908;2023-07-08T06:06:38;24.23;68.14
71039;SHT30;58692;43.212;27.908;2023-07-08T06:09:03;24.17;68.24
71039;SHT30;58692;43.212;27.908;2023-07-08T06:11:29;24.02;68.65
71039;SHT30;58692;43.212;27.908;2023-07-08T06:13:54;23.87;68.86
71039;SHT30;58692;43.212;27.908;2023-07-08T06:16:20;23.99;68.72
71039;SHT30;58692;43.212;27.908;2023-07-08T06:18:45;24.13;68.06
71039;SHT30;58692;43.212;27.908;2023-07-08T06:21:11;23.96;68.53
71039;SHT30;58692;43.212;27.908;2023-07-08T06:23:36;24.00;68.45
71039;SHT30;58692;43.212;27.908;2023-07-08T06:26:01;23.94;68.59
71039;SHT30;58692;43.212;27.908;2023-07-08T06:28:27;24.06;68.27
71039;SHT30;58692;43.212;27.908;2023-07-08T06:30:52;24.07;67.97
71039;SHT30;58692;43.212;27.908;2023-07-08T06:33:18;24.03;68.10
71039;SHT30;58692;43.212;27.908;2023-07-08T06:35:44;24.12;67.90
71039;SHT30;58692;43.212;27.908;2023-07-08T06:38:10;24.24;67.82
71039;SHT30;58692;43.212;27.908;2023-07-08T06:40:35;24.31;67.47
71039;SHT30;58692;43.212;27.908;2023-07-08T06:43:02;24.18;67.75
71039;SHT30;58692;43.212;27.908;2023-07-08T06:45:28;24.31;67.29
71039;SHT30;58692;43.212;27.908;2023-07-08T06:47:53;24.33;66.95
71039;SHT30;58692;43.212;27.908;2023-07-08T06:50:19;24.31;67.10
71039;SHT30;58692;43.212;27.908;2023-07-08T06:52:44;24.41;66.85
71039;SHT30;58692;43.212;27.908;2023-07-08T06:55:10;24.34;67.14
71039;SHT30;58692;43.212;27.908;2023-07-08T06:57:37;24.44;67.04
71039;SHT30;58692;43.212;27.908;2023-07-08T07:00:06;24.55;66.94
71039;SHT30;58692;43.212;27.908;2023-07-08T07:02:32;24.55;67.18
71039;SHT30;58692;43.212;27.908;2023-07-08T07:04:58;24.71;66.89
71039;SHT30;58692;43.212;27.908;2023-07-08T07:07:23;24.75;66.83
71039;SHT30;58692;43.212;27.908;2023-07-08T07:09:49;24.72;67.16
71039;SHT30;58692;43.212;27.908;2023-07-08T07:12:15;24.88;66.60
71039;SHT30;58692;43.212;27.908;2023-07-08T07:14:40;24.96;66.35
71039;SHT30;58692;43.212;27.908;2023-07-08T07:17:06;25.06;65.96
71039;SHT30;58692;43.212;27.908;2023-07-08T07:19:31;24.94;66.28
71039;SHT30;58692;43.212;27.908;2023-07-08T07:21:57;25.01;66.45
71039;SHT30;58692;43.212;27.908;2023-07-08T07:24:22;25.23;65.88
71039;SHT30;58692;43.212;27.908;2023-07-08T07:26:47;25.27;65.97
71039;SHT30;58692;43.212;27.908;2023-07-08T07:29:16;25.33;66.00
71039;SHT30;58692;43.212;27.908;2023-07-08T07:31:42;25.47;65.77
71039;SHT30;58692;43.212;27.908;2023-07-08T07:34:07;25.50;65.81
71039;SHT30;58692;43.212;27.908;2023-07-08T07:36:34;26.14;64.78
71039;SHT30;58692;43.212;27.908;2023-07-08T07:38:59;26.72;63.56
71039;SHT30;58692;43.212;27.908;2023-07-08T07:41:25;27.81;60.36
71039;SHT30;58692;43.212;27.908;2023-07-08T07:43:50;27.03;62.08
71039;SHT30;58692;43.212;27.908;2023-07-08T07:46:16;26.76;62.84
71039;SHT30;58692;43.212;27.908;2023-07-08T07:48:42;26.86;61.52
71039;SHT30;58692;43.212;27.908;2023-07-08T07:51:08;27.51;58.35
71039;SHT30;58692;43.212;27.908;2023-07-08T07:53:36;26.56;59.78
71039;SHT30;58692;43.212;27.908;2023-07-08T07:56:03;26.68;59.77
71039;SHT30;58692;43.212;27.908;2023-07-08T07:58:29;27.34;57.80
71039;SHT30;58692;43.212;27.908;2023-07-08T08:00:55;27.19;57.83
71039;SHT30;58692;43.212;27.908;2023-07-08T08:03:21;27.50;56.74
71039;SHT30;58692;43.212;27.908;2023-07-08T08:05:48;27.40;57.05
71039;SHT30;58692;43.212;27.908;2023-07-08T08:08:14;26.59;59.20
71039;SHT30;58692;43.212;27.908;2023-07-08T08:10:40;26.31;59.90
71039;SHT30;58692;43.212;27.908;2023-07-08T08:13:05;25.84;61.08
71039;SHT30;58692;43.212;27.908;2023-07-08T08:15:31;25.94;60.94
71039;SHT30;58692;43.212;27.908;2023-07-08T08:17:56;25.93;61.32
71039;SHT30;58692;43.212;27.908;2023-07-08T08:20:24;26.05;61.21
71039;SHT30;58692;43.212;27.908;2023-07-08T08:22:50;25.91;61.83
71039;SHT30;58692;43.212;27.908;2023-07-08T08:25:20;25.74;61.91
71039;SHT30;58692;43.212;27.908;2023-07-08T08:27:46;25.90;61.80
71039;SHT30;58692;43.212;27.908;2023-07-08T08:30:12;25.86;61.84
71039;SHT30;58692;43.212;27.908;2023-07-08T08:32:37;25.88;61.51
71039;SHT30;58692;43.212;27.908;2023-07-08T08:35:04;25.97;61.74
71039;SHT30;58692;43.212;27.908;2023-07-08T08:37:29;25.96;61.82
71039;SHT30;58692;43.212;27.908;2023-07-08T08:39:55;26.11;61.59
71039;SHT30;58692;43.212;27.908;2023-07-08T08:42:27;26.11;61.23
71039;SHT30;58692;43.212;27.908;2023-07-08T08:44:54;26.01;61.48
71039;SHT30;58692;43.212;27.908;2023-07-08T08:47:35;26.07;61.63
71039;SHT30;58692;43.212;27.908;2023-07-08T08:52:50;25.87;61.78
71039;SHT30;58692;43.212;27.908;2023-07-08T08:55:16;26.11;61.30
71039;SHT30;58692;43.212;27.908;2023-07-08T08:57:47;26.16;60.81
71039;SHT30;58692;43.212;27.908;2023-07-08T09:00:19;26.14;61.08
71039;SHT30;58692;43.212;27.908;2023-07-08T09:05:13;26.27;59.55
71039;SHT30;58692;43.212;27.908;2023-07-08T09:07:44;26.38;59.08
71039;SHT30;58692;43.212;27.908;2023-07-08T09:10:25;26.56;58.79
71039;SHT30;58692;43.212;27.908;2023-07-08T09:12:55;26.79;58.44
71039;SHT30;58692;43.212;27.908;2023-07-08T09:15:22;26.86;58.31
71039;SHT30;58692;43.212;27.908;2023-07-08T09:17:50;26.67;58.66
71039;SHT30;58692;43.212;27.908;2023-07-08T09:20:23;26.81;58.60
71039;SHT30;58692;43.212;27.908;2023-07-08T09:22:59;27.17;57.71
71039;SHT30;58692;43.212;27.908;2023-07-08T09:28:08;27.32;56.28
71039;SHT30;58692;43.212;27.908;2023-07-08T09:30:33;27.44;56.19
71039;SHT30;58692;43.212;27.908;2023-07-08T09:33:04;27.24;56.84
71039;SHT30;58692;43.212;27.908;2023-07-08T09:35:40;27.36;56.53
71039;SHT30;58692;43.212;27.908;2023-07-08T09:38:08;27.16;57.09
71039;SHT30;58692;43.212;27.908;2023-07-08T09:40:34;27.12;57.42
71039;SHT30;58692;43.212;27.908;2023-07-08T09:43:03;26.78;57.84
71039;SHT30;58692;43.212;27.908;2023-07-08T09:45:42;26.71;57.62
71039;SHT30;58692;43.212;27.908;2023-07-08T09:48:16;26.81;57.56
71039;SHT30;58692;43.212;27.908;2023-07-08T09:50:44;26.92;57.41
71039;SHT30;58692;43.212;27.908;2023-07-08T09:53:12;27.04;56.85
71039;SHT30;58692;43.212;27.908;2023-07-08T09:55:38;27.22;56.15
71039;SHT30;58692;43.212;27.908;2023-07-08T09:58:04;27.26;56.08
71039;SHT30;58692;43.212;27.908;2023-07-08T10:00:39;27.46;56.06
71039;SHT30;58692;43.212;27.908;2023-07-08T10:03:17;27.51;55.78
71039;SHT30;58692;43.212;27.908;2023-07-08T10:05:46;27.26;56.36
71039;SHT30;58692;43.212;27.908;2023-07-08T10:08:18;27.22;56.79
71039;SHT30;58692;43.212;27.908;2023-07-08T10:10:46;27.10;56.90
71039;SHT30;58692;43.212;27.908;2023-07-08T10:13:24;26.83;57.02
71039;SHT30;58692;43.212;27.908;2023-07-08T10:16:36;26.82;56.82
71039;SHT30;58692;43.212;27.908;2023-07-08T10:18:49;26.71;56.67
71039;SHT30;58692;43.212;27.908;2023-07-08T10:24:12;27.06;56.40
71039;SHT30;58692;43.212;27.908;2023-07-08T10:26:46;26.89;56.26
71039;SHT30;58692;43.212;27.908;2023-07-08T10:29:33;27.09;55.92
71039;SHT30;58692;43.212;27.908;2023-07-08T10:34:54;27.29;55.68
71039;SHT30;58692;43.212;27.908;2023-07-08T10:45:37;26.52;57.38
71039;SHT30;58692;43.212;27.908;2023-07-08T10:56:20;26.08;58.39
71039;SHT30;58692;43.212;27.908;2023-07-08T10:59:16;25.98;58.75
71039;SHT30;58692;43.212;27.908;2023-07-08T11:04:45;26.40;58.02
71039;SHT30;58692;43.212;27.908;2023-07-08T11:10:00;26.21;58.32
71039;SHT30;58692;43.212;27.908;2023-07-08T11:12:31;26.16;58.53
71039;SHT30;58692;43.212;27.908;2023-07-08T11:23:26;26.18;57.98
71039;SHT30;58692;43.212;27.908;2023-07-08T11:26:05;26.32;57.88
71039;SHT30;58692;43.212;27.908;2023-07-08T11:28:32;26.37;58.09
71039;SHT30;58692;43.212;27.908;2023-07-08T11:31:01;26.55;58.07
71039;SHT30;58692;43.212;27.908;2023-07-08T11:33:28;26.45;57.90
71039;SHT30;58692;43.212;27.908;2023-07-08T11:35:56;26.34;57.84
71039;SHT30;58692;43.212;27.908;2023-07-08T11:38:24;26.31;58.11
71039;SHT30;58692;43.212;27.908;2023-07-08T11:40:53;26.25;58.06
71039;SHT30;58692;43.212;27.908;2023-07-08T11:43:20;26.35;58.04
71039;SHT30;58692;43.212;27.908;2023-07-08T11:45:49;26.25;58.04
71039;SHT30;58692;43.212;27.908;2023-07-08T11:48:29;26.24;58.14
71039;SHT30;58692;43.212;27.908;2023-07-08T11:50:57;26.16;58.10
71039;SHT30;58692;43.212;27.908;2023-07-08T11:53:36;26.55;57.63
71039;SHT30;58692;43.212;27.908;2023-07-08T11:56:19;26.73;57.27
71039;SHT30;58692;43.212;27.908;2023-07-08T12:03:41;26.82;56.26
71039;SHT30;58692;43.212;27.908;2023-07-08T12:08:54;26.63;56.70
71039;SHT30;58692;43.212;27.908;2023-07-08T12:11:31;26.53;56.87
71039;SHT30;58692;43.212;27.908;2023-07-08T12:13:59;26.55;57.08
71039;SHT30;58692;43.212;27.908;2023-07-08T12:16:26;26.73;56.38
71039;SHT30;58692;43.212;27.908;2023-07-08T12:18:53;26.52;56.55
71039;SHT30;58692;43.212;27.908;2023-07-08T12:21:22;26.41;56.46
71039;SHT30;58692;43.212;27.908;2023-07-08T12:23:48;26.41;56.45
71039;SHT30;58692;43.212;27.908;2023-07-08T12:26:14;26.47;56.18
71039;SHT30;58692;43.212;27.908;2023-07-08T12:28:40;26.51;56.46
71039;SHT30;58692;43.212;27.908;2023-07-08T12:33:40;26.79;55.95
71039;SHT30;58692;43.212;27.908;2023-07-08T12:36:10;27.19;54.90
71039;SHT30;58692;43.212;27.908;2023-07-08T12:38:39;27.50;54.27
71039;SHT30;58692;43.212;27.908;2023-07-08T12:41:10;27.24;54.01
71039;SHT30;58692;43.212;27.908;2023-07-08T12:43:36;27.27;53.46
71039;SHT30;58692;43.212;27.908;2023-07-08T12:46:02;27.03;53.74
71039;SHT30;58692;43.212;27.908;2023-07-08T12:48:37;27.03;53.90
71039;SHT30;58692;43.212;27.908;2023-07-08T12:51:04;27.07;53.45
71039;SHT30;58692;43.212;27.908;2023-07-08T12:53:30;27.00;54.02
71039;SHT30;58692;43.212;27.908;2023-07-08T12:55:58;27.09;53.40
71039;SHT30;58692;43.212;27.908;2023-07-08T12:58:26;27.16;53.44
71039;SHT30;58692;43.212;27.908;2023-07-08T13:00:52;27.07;53.78
71039;SHT30;58692;43.212;27.908;2023-07-08T13:03:22;27.03;53.90
71039;SHT30;58692;43.212;27.908;2023-07-08T13:05:49;27.33;53.54
71039;SHT30;58692;43.212;27.908;2023-07-08T13:08:18;27.42;53.17
71039;SHT30;58692;43.212;27.908;2023-07-08T13:10:44;27.34;53.56
71039;SHT30;58692;43.212;27.908;2023-07-08T13:13:14;27.16;53.73
71039;SHT30;58692;43.212;27.908;2023-07-08T13:15:42;26.89;54.24
71039;SHT30;58692;43.212;27.908;2023-07-08T13:20:40;26.89;54.03
71039;SHT30;58692;43.212;27.908;2023-07-08T13:23:07;26.73;54.38
71039;SHT30;58692;43.212;27.908;2023-07-08T13:25:37;26.78;54.24
71039;SHT30;58692;43.212;27.908;2023-07-08T13:31:00;26.91;53.87
71039;SHT30;58692;43.212;27.908;2023-07-08T13:33:31;27.00;53.54
71039;SHT30;58692;43.212;27.908;2023-07-08T13:35:58;26.83;53.79
71039;SHT30;58692;43.212;27.908;2023-07-08T13:38:28;26.76;54.01
71039;SHT30;58692;43.212;27.908;2023-07-08T13:41:03;27.00;53.63
71039;SHT30;58692;43.212;27.908;2023-07-08T13:43:31;27.07;53.35
71039;SHT30;58692;43.212;27.908;2023-07-08T13:45:57;27.04;52.97
71039;SHT30;58692;43.212;27.908;2023-07-08T13:51:07;27.12;52.49
71039;SHT30;58692;43.212;27.908;2023-07-08T13:53:44;27.19;52.11
71039;SHT30;58692;43.212;27.908;2023-07-08T13:56:15;27.23;52.36
71039;SHT30;58692;43.212;27.908;2023-07-08T13:58:48;26.99;52.06
71039;SHT30;58692;43.212;27.908;2023-07-08T14:01:17;26.99;52.21
71039;SHT30;58692;43.212;27.908;2023-07-08T14:03:44;26.95;52.20
71039;SHT30;58692;43.212;27.908;2023-07-08T14:06:19;26.71;52.73
71039;SHT30;58692;43.212;27.908;2023-07-08T14:08:45;26.55;52.70
71039;SHT30;58692;43.212;27.908;2023-07-08T14:11:10;26.56;52.91
71039;SHT30;58692;43.212;27.908;2023-07-08T14:13:36;26.52;53.06
71039;SHT30;58692;43.212;27.908;2023-07-08T14:16:02;26.48;53.12
71039;SHT30;58692;43.212;27.908;2023-07-08T14:18:31;26.62;53.04
71039;SHT30;58692;43.212;27.908;2023-07-08T14:20:57;26.52;53.16
71039;SHT30;58692;43.212;27.908;2023-07-08T14:23:23;26.44;53.01
71039;SHT30;58692;43.212;27.908;2023-07-08T14:25:49;25.97;53.65
71039;SHT30;58692;43.212;27.908;2023-07-08T14:28:14;25.81;54.06
71039;SHT30;58692;43.212;27.908;2023-07-08T14:30:43;25.84;53.97
71039;SHT30;58692;43.212;27.908;2023-07-08T14:33:11;25.63;54.22
71039;SHT30;58692;43.212;27.908;2023-07-08T14:35:37;25.71;53.91
71039;SHT30;58692;43.212;27.908;2023-07-08T14:38:02;25.67;53.78
71039;SHT30;58692;43.212;27.908;2023-07-08T14:40:37;25.57;53.77
71039;SHT30;58692;43.212;27.908;2023-07-08T14:45:41;25.60;53.78
71039;SHT30;58692;43.212;27.908;2023-07-08T14:48:09;25.50;53.99
71039;SHT30;58692;43.212;27.908;2023-07-08T14:50:35;25.53;54.19
71039;SHT30;58692;43.212;27.908;2023-07-08T14:53:01;25.62;54.12
71039;SHT30;58692;43.212;27.908;2023-07-08T14:55:26;25.67;54.14
71039;SHT30;58692;43.212;27.908;2023-07-08T14:57:52;25.65;54.15
71039;SHT30;58692;43.212;27.908;2023-07-08T15:00:19;25.70;54.01
71039;SHT30;58692;43.212;27.908;2023-07-08T15:02:46;25.71;54.05
71039;SHT30;58692;43.212;27.908;2023-07-08T15:05:22;25.56;53.98
71039;SHT30;58692;43.212;27.908;2023-07-08T15:07:52;25.62;53.89
71039;SHT30;58692;43.212;27.908;2023-07-08T15:10:19;25.39;54.11
71039;SHT30;58692;43.212;27.908;2023-07-08T15:12:47;25.50;53.92
71039;SHT30;58692;43.212;27.908;2023-07-08T15:15:28;25.56;53.90
71039;SHT30;58692;43.212;27.908;2023-07-08T15:17:56;25.43;54.03
71039;SHT30;58692;43.212;27.908;2023-07-08T15:20:23;25.42;54.13
71039;SHT30;58692;43.212;27.908;2023-07-08T15:22:49;25.59;53.85
71039;SHT30;58692;43.212;27.908;2023-07-08T15:25:15;25.47;54.00
71039;SHT30;58692;43.212;27.908;2023-07-08T15:27:43;25.36;53.92
71039;SHT30;58692;43.212;27.908;2023-07-08T15:30:16;25.19;53.90
71039;SHT30;58692;43.212;27.908;2023-07-08T15:32:43;24.99;54.39
71039;SHT30;58692;43.212;27.908;2023-07-08T15:35:14;25.04;54.57
71039;SHT30;58692;43.212;27.908;2023-07-08T15:37:41;25.11;54.65
71039;SHT30;58692;43.212;27.908;2023-07-08T15:40:07;25.29;54.40
71039;SHT30;58692;43.212;27.908;2023-07-08T15:42:35;25.35;54.21
71039;SHT30;58692;43.212;27.908;2023-07-08T15:45:07;25.22;54.38
71039;SHT30;58692;43.212;27.908;2023-07-08T15:47:34;25.12;54.68
71039;SHT30;58692;43.212;27.908;2023-07-08T15:49:59;25.06;54.81
71039;SHT30;58692;43.212;27.908;2023-07-08T15:52:25;25.12;54.34
71039;SHT30;58692;43.212;27.908;2023-07-08T15:54:50;24.94;54.72
71039;SHT30;58692;43.212;27.908;2023-07-08T15:57:15;24.96;54.70
71039;SHT30;58692;43.212;27.908;2023-07-08T15:59:41;24.94;54.78
71039;SHT30;58692;43.212;27.908;2023-07-08T16:02:20;24.88;54.89
71039;SHT30;58692;43.212;27.908;2023-07-08T16:04:48;24.84;55.21
71039;SHT30;58692;43.212;27.908;2023-07-08T16:07:14;24.69;55.57
71039;SHT30;58692;43.212;27.908;2023-07-08T16:09:39;24.54;55.96
71039;SHT30;58692;43.212;27.908;2023-07-08T16:12:05;24.58;55.94
71039;SHT30;58692;43.212;27.908;2023-07-08T16:14:31;24.64;55.96
71039;SHT30;58692;43.212;27.908;2023-07-08T16:16:56;24.58;56.04
71039;SHT30;58692;43.212;27.908;2023-07-08T16:19:22;24.61;56.03
71039;SHT30;58692;43.212;27.908;2023-07-08T16:21:47;24.45;56.37
71039;SHT30;58692;43.212;27.908;2023-07-08T16:24:13;24.48;56.55
71039;SHT30;58692;43.212;27.908;2023-07-08T16:26:39;24.67;56.40